sensor_id;sensor_type;location;lat;lon;timestamp;temperature;humidity
73360;DHT22;63092;43.582;19.528;2023-12-20T00:00:25;3.20;99.90
73360;DHT22;63092;43.582;19.528;2023-12-20T00:02:51;3.10;99.90
73360;DHT22;63092;43.582;19.528;2023-12-20T00:05:16;3.00;99.90
73360;DHT22;63092;43.582;19.528;2023-12-20T00:07:42;3.10;99.90
73360;DHT22;63092;43.582;19.528;2023-12-20T00:10:08;3.10;99.90
73360;DHT22;63092;43.582;19.528;2023-12-20T00:12:34;3.00;99.90
73360;DHT22;63092;43.582;19.528;2023-12-20T00:14:59;3.00;99.90
73360;DHT22;63092;43.582;19.528;2023-12-20T00:17:25;3.00;99.90
73360;DHT22;63092;43.582;19.528;2023-12-20T00:19:50;2.90;99.90
73360;DHT22;63092;43.582;19.528;2023-12-20T00:22:16;2.70;99.90
73360;DHT22;63092;43.582;19.528;2023-12-20T00:24:41;2.80;99.90
73360;DHT22;63092;43.582;19.528;2023-12-20T00:27:07;2.80;99.90
73360;DHT22;63092;43.582;19.528;2023-12-20T00:29:32;2.70;99.90
73360;DHT22;63092;43.582;19.528;2023-12-20T00:31:58;2.70;99.90
73360;DHT22;63092;43.582;19.528;2023-12-20T00:34:24;2.70;99.90
73360;DHT22;63092;43.582;19.528;2023-12-20T00:36:49;2.60;99.90
73360;DHT22;63092;43.582;19.528;2023-12-20T00:39:15;2.70;99.90
73360;DHT22;63092;43.582;19.528;2023-12-20T00:41:40;2.80;99.90
73360;DHT22;63092;43.582;19.528;2023-12-20T00:44:06;2.80;99.90
73360;DHT22;63092;43.582;19.528;2023-12-20T00:46:32;2.90;99.90
73360;DHT22;63092;43.582;19.528;2023-12-20T00:48:57;2.80;99.90
73360;DHT22;63092;43.582;19.528;2023-12-20T00:51:23;2.80;99.90
73360;DHT22;63092;43.582;19.528;2023-12-20T00:53:49;2.80;99.90
73360;DHT22;63092;43.582;19.528;2023-12-20T00:56:15;2.70;99.90
73360;DHT22;63092;43.582;19.528;2023-12-20T00:58:41;2.70;99.90
73360;DHT22;63092;43.582;19.528;2023-12-20T01:01:06;2.60;99.90
73360;DHT22;63092;43.582;19.528;2023-12-20T01:03:32;2.60;99.90
73360;DHT22;63092;43.582;19.528;2023-12-20T01:05:57;2.70;99.90
73360;DHT22;63092;43.582;19.528;2023-12-20T01:08:23;2.70;99.90
73360;DHT22;63092;43.582;19.528;2023-12-20T01:10:49;2.60;99.90
73360;DHT22;63092;43.582;19.528;2023-12-20T01:13:14;2.60;99.90
73360;DHT22;63092;43.582;19.528;2023-12-20T01:15:40;2.60;99.90
73360;DHT22;63092;43.582;19.528;2023-12-20T01:18:05;2.70;99.90
73360;DHT22;63092;43.582;19.528;2023-12-20T01:20:31;2.80;99.90
73360;DHT22;63092;43.582;19.528;2023-12-20T01:22:56;2.80;99.90
73360;DHT22;63092;43.582;19.528;2023-12-20T01:25:22;2.80;99.90
73360;DHT22;63092;43.582;19.528;2023-12-20T01:27:48;2.90;99.90
73360;DHT22;63092;43.582;19.528;2023-12-20T01:30:14;2.90;99.90
73360;DHT22;63092;43.582;19.528;2023-12-20T01:32:40;2.90;99.90
73360;DHT22;63092;43.582;19.528;2023-12-20T01:35:05;2.80;99.90
73360;DHT22;63092;43.582;19.528;2023-12-20T01:37:31;2.80;99.90
73360;DHT22;63092;43.582;19.528;2023-12-20T01:39:57;2.80;99.90
73360;DHT22;63092;43.582;19.528;2023-12-20T01:42:24;2.80;99.90
73360;DHT22;63092;43.582;19.528;2023-12-20T01:44:49;2.90;99.90
73360;DHT22;63092;43.582;19.528;2023-12-20T01:47:15;2.90;99.90
73360;DHT22;63092;43.582;19.528;2023-12-20T01:49:40;2.90;99.90
73360;DHT22;63092;43.582;19.528;2023-12-20T01:52:06;2.90;99.90
73360;DHT22;63092;43.582;19.528;2023-12-20T01:54:32;2.90;99.90
73360;DHT22;63092;43.582;19.528;2023-12-20T01:56:57;3.00;99.90
73360;DHT22;63092;43.582;19.528;2023-12-20T01:59:23;3.00;99.90
73360;DHT22;63092;43.582;19.528;2023-12-20T02:01:49;3.00;99.90
73360;DHT22;63092;43.582;19.528;2023-12-20T02:04:15;3.00;99.90
73360;DHT22;63092;43.582;19.528;2023-12-20T02:06:41;3.10;99.90
73360;DHT22;63092;43.582;19.528;2023-12-20T02:09:07;3.00;99.90
73360;DHT22;63092;43.582;19.528;2023-12-20T02:11:33;2.90;99.90
73360;DHT22;63092;43.582;19.528;2023-12-20T02:14:00;2.80;99.90
73360;DHT22;63092;43.582;19.528;2023-12-20T02:16:26;2.80;99.90
73360;DHT22;63092;43.582;19.528;2023-12-20T02:18:52;2.80;99.90
73360;DHT22;63092;43.582;19.528;2023-12-20T02:21:18;2.80;99.90
73360;DHT22;63092;43.582;19.528;2023-12-20T02:23:43;2.70;99.90
73360;DHT22;63092;43.582;19.528;2023-12-20T02:26:09;2.60;99.90
73360;DHT22;63092;43.582;19.528;2023-12-20T02:28:35;2.60;99.90
73360;DHT22;63092;43.582;19.528;2023-12-20T02:31:01;2.60;99.90
73360;DHT22;63092;43.582;19.528;2023-12-20T02:33:26;2.50;99.90
73360;DHT22;63092;43.582;19.528;2023-12-20T02:35:52;2.50;99.90
73360;DHT22;63092;43.582;19.528;2023-12-20T02:38:18;2.60;99.90
73360;DHT22;63092;43.582;19.528;2023-12-20T02:40:43;2.60;99.90
73360;DHT22;63092;43.582;19.528;2023-12-20T02:43:09;2.60;99.90
73360;DHT22;63092;43.582;19.528;2023-12-20T02:45:35;2.70;99.90
73360;DHT22;63092;43.582;19.528;2023-12-20T02:48:01;2.70;99.90
73360;DHT22;63092;43.582;19.528;2023-12-20T02:50:27;2.60;99.90
73360;DHT22;63092;43.582;19.528;2023-12-20T02:52:52;2.70;99.90
73360;DHT22;63092;43.582;19.528;2023-12-20T02:55:18;2.70;99.90
73360;DHT22;63092;43.582;19.528;2023-12-20T02:57:43;2.70;99.90
73360;DHT22;63092;43.582;19.528;2023-12-20T03:00:09;2.80;99.90
73360;DHT22;63092;43.582;19.528;2023-12-20T03:02:36;2.80;99.90
73360;DHT22;63092;43.582;19.528;2023-12-20T03:05:02;2.70;99.90
73360;DHT22;63092;43.582;19.528;2023-12-20T03:07:27;2.70;99.90
73360;DHT22;63092;43.582;19.528;2023-12-20T03:09:53;2.80;99.90
73360;DHT22;63092;43.582;19.528;2023-12-20T03:12:18;2.70;99.90
73360;DHT22;63092;43.582;19.528;2023-12-20T03:14:44;2.60;99.90
73360;DHT22;63092;43.582;19.528;2023-12-20T03:17:10;2.60;99.90
73360;DHT22;63092;43.582;19.528;2023-12-20T03:19:35;2.60;99.90
73360;DHT22;63092;43.582;19.528;2023-12-20T03:22:01;2.60;99.90
73360;DHT22;63092;43.582;19.528;2023-12-20T03:24:27;2.60;99.90
73360;DHT22;63092;43.582;19.528;2023-12-20T03:26:52;2.60;99.90
73360;DHT22;63092;43.582;19.528;2023-12-20T03:29:18;2.60;99.90
73360;DHT22;63092;43.582;19.528;2023-12-20T03:31:44;2.70;99.90
73360;DHT22;63092;43.582;19.528;2023-12-20T03:34:09;2.60;99.90
73360;DHT22;63092;43.582;19.528;2023-12-20T03:36:36;2.60;99.90
73360;DHT22;63092;43.582;19.528;2023-12-20T03:39:01;2.60;99.90
73360;DHT22;63092;43.582;19.528;2023-12-20T03:41:27;2.60;99.90
73360;DHT22;63092;43.582;19.528;2023-12-20T03:43:52;2.60;99.90
73360;DHT22;63092;43.582;19.528;2023-12-20T03:46:18;2.70;99.90
73360;DHT22;63092;43.582;19.528;2023-12-20T03:48:43;2.60;99.90
73360;DHT22;63092;43.582;19.528;2023-12-20T03:51:09;2.60;99.90
73360;DHT22;63092;43.582;19.528;2023-12-20T03:53:35;2.60;99.90
73360;DHT22;63092;43.582;19.528;2023-12-20T03:56:00;2.60;99.90
73360;DHT22;63092;43.582;19.528;2023-12-20T03:58:26;2.60;99.90
73360;DHT22;63092;43.582;19.528;2023-12-20T04:00:52;2.60;99.90
73360;DHT22;63092;43.582;19.528;2023-12-20T04:03:17;2.50;99.90
73360;DHT22;63092;43.582;19.528;2023-12-20T04:05:43;2.50;99.90
73360;DHT22;63092;43.582;19.528;2023-12-20T04:08:08;2.50;99.90
73360;DHT22;63092;43.582;19.528;2023-12-20T04:10:34;2.50;99.90
73360;DHT22;63092;43.582;19.528;2023-12-20T04:13:00;2.60;99.90
73360;DHT22;63092;43.582;19.528;2023-12-20T04:15:25;2.60;99.90
73360;DHT22;63092;43.582;19.528;2023-12-20T04:17:51;2.60;99.90
73360;DHT22;63092;43.582;19.528;2023-12-20T04:20:16;2.60;99.90
73360;DHT22;63092;43.582;19.528;2023-12-20T04:22:42;2.70;99.90
73360;DHT22;63092;43.582;19.528;2023-12-20T04:25:08;2.70;99.90
73360;DHT22;63092;43.582;19.528;2023-12-20T04:27:33;2.70;99.90
73360;DHT22;63092;43.582;19.528;2023-12-20T04:29:59;2.70;99.90
73360;DHT22;63092;43.582;19.528;2023-12-20T04:32:25;2.70;99.90
73360;DHT22;63092;43.582;19.528;2023-12-20T04:34:50;2.60;99.90
73360;DHT22;63092;43.582;19.528;2023-12-20T04:37:16;2.60;99.90
73360;DHT22;63092;43.582;19.528;2023-12-20T04:39:41;2.60;99.90
73360;DHT22;63092;43.582;19.528;2023-12-20T04:42:07;2.60;99.90
73360;DHT22;63092;43.582;19.528;2023-12-20T04:44:33;2.60;99.90
73360;DHT22;63092;43.582;19.528;2023-12-20T04:46:59;2.60;99.90
73360;DHT22;63092;43.582;19.528;2023-12-20T04:49:25;2.50;99.90
73360;DHT22;63092;43.582;19.528;2023-12-20T04:51:50;2.40;99.90
73360;DHT22;63092;43.582;19.528;2023-12-20T04:54:16;2.50;99.90
73360;DHT22;63092;43.582;19.528;2023-12-20T04:56:41;2.50;99.90
73360;DHT22;63092;43.582;19.528;2023-12-20T04:59:07;2.60;99.90
73360;DHT22;63092;43.582;19.528;2023-12-20T05:01:34;2.50;99.90
73360;DHT22;63092;43.582;19.528;2023-12-20T05:04:00;2.40;99.90
73360;DHT22;63092;43.582;19.528;2023-12-20T05:06:25;2.40;99.90
73360;DHT22;63092;43.582;19.528;2023-12-20T05:08:51;2.40;99.90
73360;DHT22;63092;43.582;19.528;2023-12-20T05:11:16;2.30;99.90
73360;DHT22;63092;43.582;19.528;2023-12-20T05:13:42;2.30;99.90
73360;DHT22;63092;43.582;19.528;2023-12-20T05:16:07;2.40;99.90
73360;DHT22;63092;43.582;19.528;2023-12-20T05:18:34;2.40;99.90
73360;DHT22;63092;43.582;19.528;2023-12-20T05:21:00;2.40;99.90
73360;DHT22;63092;43.582;19.528;2023-12-20T05:23:25;2.40;99.90
73360;DHT22;63092;43.582;19.528;2023-12-20T05:25:51;2.40;99.90
73360;DHT22;63092;43.582;19.528;2023-12-20T05:28:17;2.40;99.90
73360;DHT22;63092;43.582;19.528;2023-12-20T05:30:42;2.40;99.90
73360;DHT22;63092;43.582;19.528;2023-12-20T05:33:08;2.40;99.90
73360;DHT22;63092;43.582;19.528;2023-12-20T05:35:34;2.50;99.90
73360;DHT22;63092;43.582;19.528;2023-12-20T05:38:00;2.50;99.90
73360;DHT22;63092;43.582;19.528;2023-12-20T05:40:26;2.50;99.90
73360;DHT22;63092;43.582;19.528;2023-12-20T05:42:51;2.40;99.90
73360;DHT22;63092;43.582;19.528;2023-12-20T05:45:17;2.40;99.90
73360;DHT22;63092;43.582;19.528;2023-12-20T05:47:42;2.40;99.90
73360;DHT22;63092;43.582;19.528;2023-12-20T05:50:08;2.40;99.90
73360;DHT22;63092;43.582;19.528;2023-12-20T05:52:34;2.40;99.90
73360;DHT22;63092;43.582;19.528;2023-12-20T05:54:59;2.50;99.90
73360;DHT22;63092;43.582;19.528;2023-12-20T05:57:27;2.50;99.90
73360;DHT22;63092;43.582;19.528;2023-12-20T05:59:52;2.50;99.90
73360;DHT22;63092;43.582;19.528;2023-12-20T06:02:18;2.50;99.90
73360;DHT22;63092;43.582;19.528;2023-12-20T06:04:44;2.50;99.90
73360;DHT22;63092;43.582;19.528;2023-12-20T06:07:12;2.50;99.90
73360;DHT22;63092;43.582;19.528;2023-12-20T06:09:38;2.50;99.90
73360;DHT22;63092;43.582;19.528;2023-12-20T06:12:04;2.50;99.90
73360;DHT22;63092;43.582;19.528;2023-12-20T06:14:29;2.60;99.90
73360;DHT22;63092;43.582;19.528;2023-12-20T06:16:56;2.50;99.90
73360;DHT22;63092;43.582;19.528;2023-12-20T06:19:22;2.50;99.90
73360;DHT22;63092;43.582;19.528;2023-12-20T06:21:47;2.50;99.90
73360;DHT22;63092;43.582;19.528;2023-12-20T06:24:13;2.50;99.90
73360;DHT22;63092;43.582;19.528;2023-12-20T06:26:38;2.50;99.90
73360;DHT22;63092;43.582;19.528;2023-12-20T06:29:04;2.50;99.90
73360;DHT22;63092;43.582;19.528;2023-12-20T06:31:30;2.50;99.90
73360;DHT22;63092;43.582;19.528;2023-12-20T06:33:55;2.50;99.90
73360;DHT22;63092;43.582;19.528;2023-12-20T06:36:23;2.50;99.90
73360;DHT22;63092;43.582;19.528;2023-12-20T06:38:49;2.40;99.90
73360;DHT22;63092;43.582;19.528;2023-12-20T06:41:15;2.50;99.90
73360;DHT22;63092;43.582;19.528;2023-12-20T06:43:41;2.60;99.90
73360;DHT22;63092;43.582;19.528;2023-12-20T06:46:06;2.60;99.90
73360;DHT22;63092;43.582;19.528;2023-12-20T06:48:32;2.50;99.90
73360;DHT22;63092;43.582;19.528;2023-12-20T06:50:59;2.50;99.90
73360;DHT22;63092;43.582;19.528;2023-12-20T06:53:25;2.50;99.90
73360;DHT22;63092;43.582;19.528;2023-12-20T06:55:50;2.40;99.90
73360;DHT22;63092;43.582;19.528;2023-12-20T06:58:16;2.40;99.90
73360;DHT22;63092;43.582;19.528;2023-12-20T07:00:41;2.40;99.90
73360;DHT22;63092;43.582;19.528;2023-12-20T07:03:08;2.40;99.90
73360;DHT22;63092;43.582;19.528;2023-12-20T07:05:34;2.30;99.90
73360;DHT22;63092;43.582;19.528;2023-12-20T07:07:59;2.30;99.90
73360;DHT22;63092;43.582;19.528;2023-12-20T07:10:25;2.30;99.90
73360;DHT22;63092;43.582;19.528;2023-12-20T07:12:51;2.40;99.90
73360;DHT22;63092;43.582;19.528;2023-12-20T07:15:17;2.40;99.90
73360;DHT22;63092;43.582;19.528;2023-12-20T07:17:43;2.40;99.90
73360;DHT22;63092;43.582;19.528;2023-12-20T07:20:09;2.40;99.90
73360;DHT22;63092;43.582;19.528;2023-12-20T07:22:36;2.40;99.90
73360;DHT22;63092;43.582;19.528;2023-12-20T07:25:01;2.40;99.90
73360;DHT22;63092;43.582;19.528;2023-12-20T07:27:27;2.40;99.90
73360;DHT22;63092;43.582;19.528;2023-12-20T07:29:53;2.40;99.90
73360;DHT22;63092;43.582;19.528;2023-12-20T07:32:18;2.40;99.90
73360;DHT22;63092;43.582;19.528;2023-12-20T07:34:44;2.50;99.90
73360;DHT22;63092;43.582;19.528;2023-12-20T07:37:10;2.40;99.90
73360;DHT22;63092;43.582;19.528;2023-12-20T07:39:37;2.40;99.90
73360;DHT22;63092;43.582;19.528;2023-12-20T07:42:03;2.40;99.90
73360;DHT22;63092;43.582;19.528;2023-12-20T07:44:28;2.40;99.90
73360;DHT22;63092;43.582;19.528;2023-12-20T07:46:54;2.40;99.90
73360;DHT22;63092;43.582;19.528;2023-12-20T07:49:19;2.40;99.90
73360;DHT22;63092;43.582;19.528;2023-12-20T07:51:45;2.40;99.90
73360;DHT22;63092;43.582;19.528;2023-12-20T07:54:10;2.50;99.90
73360;DHT22;63092;43.582;19.528;2023-12-20T07:56:36;2.60;99.90
73360;DHT22;63092;43.582;19.528;2023-12-20T07:59:01;2.50;99.90
73360;DHT22;63092;43.582;19.528;2023-12-20T08:01:27;2.60;99.90
73360;DHT22;63092;43.582;19.528;2023-12-20T08:03:53;2.50;99.90
73360;DHT22;63092;43.582;19.528;2023-12-20T08:06:18;2.60;99.90
73360;DHT22;63092;43.582;19.528;2023-12-20T08:08:44;2.50;99.90
73360;DHT22;63092;43.582;19.528;2023-12-20T08:11:09;2.50;99.90
73360;DHT22;63092;43.582;19.528;2023-12-20T08:13:35;2.50;99.90
73360;DHT22;63092;43.582;19.528;2023-12-20T08:16:01;2.60;99.90
73360;DHT22;63092;43.582;19.528;2023-12-20T08:18:28;2.60;99.90
73360;DHT22;63092;43.582;19.528;2023-12-20T08:20:54;2.60;99.90
73360;DHT22;63092;43.582;19.528;2023-12-20T08:23:19;2.50;99.90
73360;DHT22;63092;43.582;19.528;2023-12-20T08:25:46;2.60;99.90
73360;DHT22;63092;43.582;19.528;2023-12-20T08:28:12;2.50;99.90
73360;DHT22;63092;43.582;19.528;2023-12-20T08:30:37;2.50;99.90
73360;DHT22;63092;43.582;19.528;2023-12-20T08:33:03;2.60;99.90
73360;DHT22;63092;43.582;19.528;2023-12-20T08:35:29;2.50;99.90
73360;DHT22;63092;43.582;19.528;2023-12-20T08:37:55;2.50;99.90
73360;DHT22;63092;43.582;19.528;2023-12-20T08:40:21;2.50;99.90
73360;DHT22;63092;43.582;19.528;2023-12-20T08:42:46;2.50;99.90
73360;DHT22;63092;43.582;19.528;2023-12-20T08:45:12;2.50;99.90
73360;DHT22;63092;43.582;19.528;2023-12-20T08:47:37;2.50;99.90
73360;DHT22;63092;43.582;19.528;2023-12-20T08:50:03;2.50;99.90
73360;DHT22;63092;43.582;19.528;2023-12-20T08:52:29;2.60;99.90
73360;DHT22;63092;43.582;19.528;2023-12-20T08:54:55;2.60;99.90
73360;DHT22;63092;43.582;19.528;2023-12-20T08:57:20;2.60;99.90
73360;DHT22;63092;43.582;19.528;2023-12-20T08:59:47;2.50;99.90
73360;DHT22;63092;43.582;19.528;2023-12-20T09:02:12;2.60;99.90
73360;DHT22;63092;43.582;19.528;2023-12-20T09:04:38;2.50;99.90
73360;DHT22;63092;43.582;19.528;2023-12-20T09:07:04;2.60;99.90
73360;DHT22;63092;43.582;19.528;2023-12-20T09:09:29;2.60;99.90
73360;DHT22;63092;43.582;19.528;2023-12-20T09:11:57;2.50;99.90
73360;DHT22;63092;43.582;19.528;2023-12-20T09:14:23;2.60;99.90
73360;DHT22;63092;43.582;19.528;2023-12-20T09:16:48;2.60;99.90
73360;DHT22;63092;43.582;19.528;2023-12-20T09:19:19;2.50;99.90
73360;DHT22;63092;43.582;19.528;2023-12-20T09:21:44;2.50;99.90
73360;DHT22;63092;43.582;19.528;2023-12-20T09:24:10;2.50;99.90
73360;DHT22;63092;43.582;19.528;2023-12-20T09:26:35;2.50;99.90
73360;DHT22;63092;43.582;19.528;2023-12-20T09:29:01;2.60;99.90
73360;DHT22;63092;43.582;19.528;2023-12-20T09:31:27;2.70;99.90
73360;DHT22;63092;43.582;19.528;2023-12-20T09:33:52;2.70;99.90
73360;DHT22;63092;43.582;19.528;2023-12-20T09:36:18;2.70;99.90
73360;DHT22;63092;43.582;19.528;2023-12-20T09:38:43;2.70;99.90
73360;DHT22;63092;43.582;19.528;2023-12-20T09:41:09;2.70;99.90
73360;DHT22;63092;43.582;19.528;2023-12-20T09:43:35;2.80;99.90
73360;DHT22;63092;43.582;19.528;2023-12-20T09:46:02;2.90;99.90
73360;DHT22;63092;43.582;19.528;2023-12-20T09:48:30;3.00;99.90
73360;DHT22;63092;43.582;19.528;2023-12-20T09:50:56;3.00;99.90
73360;DHT22;63092;43.582;19.528;2023-12-20T09:53:22;2.90;99.90
73360;DHT22;63092;43.582;19.528;2023-12-20T09:55:48;3.00;99.90
73360;DHT22;63092;43.582;19.528;2023-12-20T09:58:14;3.10;99.90
73360;DHT22;63092;43.582;19.528;2023-12-20T10:00:40;3.10;99.90
73360;DHT22;63092;43.582;19.528;2023-12-20T10:03:06;3.10;99.90
73360;DHT22;63092;43.582;19.528;2023-12-20T10:05:32;3.10;99.90
73360;DHT22;63092;43.582;19.528;2023-12-20T10:07:59;3.20;99.90
73360;DHT22;63092;43.582;19.528;2023-12-20T10:10:25;3.20;99.90
73360;DHT22;63092;43.582;19.528;2023-12-20T10:13:10;3.30;99.90
73360;DHT22;63092;43.582;19.528;2023-12-20T10:15:36;3.10;99.90
73360;DHT22;63092;43.582;19.528;2023-12-20T10:18:02;3.10;99.90
73360;DHT22;63092;43.582;19.528;2023-12-20T10:20:28;3.20;99.90
73360;DHT22;63092;43.582;19.528;2023-12-20T10:22:57;3.10;99.90
73360;DHT22;63092;43.582;19.528;2023-12-20T10:25:22;3.10;99.90
73360;DHT22;63092;43.582;19.528;2023-12-20T10:27:49;3.10;99.90
73360;DHT22;63092;43.582;19.528;2023-12-20T10:30:14;3.20;99.90
73360;DHT22;63092;43.582;19.528;2023-12-20T10:32:40;3.20;99.90
73360;DHT22;63092;43.582;19.528;2023-12-20T10:35:08;3.20;99.90
73360;DHT22;63092;43.582;19.528;2023-12-20T10:37:37;3.20;99.90
73360;DHT22;63092;43.582;19.528;2023-12-20T10:40:03;3.30;99.90
73360;DHT22;63092;43.582;19.528;2023-12-20T10:42:29;3.20;99.90
73360;DHT22;63092;43.582;19.528;2023-12-20T10:44:55;3.20;99.90
73360;DHT22;63092;43.582;19.528;2023-12-20T10:47:20;3.20;99.90
73360;DHT22;63092;43.582;19.528;2023-12-20T10:49:46;3.30;99.90
73360;DHT22;63092;43.582;19.528;2023-12-20T10:52:12;3.40;99.90
73360;DHT22;63092;43.582;19.528;2023-12-20T10:54:41;3.30;99.90
73360;DHT22;63092;43.582;19.528;2023-12-20T10:57:07;3.30;99.90
73360;DHT22;63092;43.582;19.528;2023-12-20T10:59:38;3.40;99.90
73360;DHT22;63092;43.582;19.528;2023-12-20T11:02:05;3.40;99.90
73360;DHT22;63092;43.582;19.528;2023-12-20T11:04:40;3.60;99.90
73360;DHT22;63092;43.582;19.528;2023-12-20T11:09:43;3.70;99.90
73360;DHT22;63092;43.582;19.528;2023-12-20T11:14:55;3.60;99.90
73360;DHT22;63092;43.582;19.528;2023-12-20T11:17:22;3.70;99.90
73360;DHT22;63092;43.582;19.528;2023-12-20T11:22:18;3.50;99.90
73360;DHT22;63092;43.582;19.528;2023-12-20T11:24:44;3.40;99.90
73360;DHT22;63092;43.582;19.528;2023-12-20T11:27:12;3.50;99.90
73360;DHT22;63092;43.582;19.528;2023-12-20T11:29:38;3.40;99.90
73360;DHT22;63092;43.582;19.528;2023-12-20T11:32:48;3.50;99.90
73360;DHT22;63092;43.582;19.528;2023-12-20T11:34:56;3.50;99.90
73360;DHT22;63092;43.582;19.528;2023-12-20T11:37:21;3.70;99.90
73360;DHT22;63092;43.582;19.528;2023-12-20T11:40:00;3.60;99.90
73360;DHT22;63092;43.582;19.528;2023-12-20T11:42:26;3.60;99.90
73360;DHT22;63092;43.582;19.528;2023-12-20T11:44:51;3.70;99.90
73360;DHT22;63092;43.582;19.528;2023-12-20T11:47:17;3.60;99.90
73360;DHT22;63092;43.582;19.528;2023-12-20T11:49:46;3.70;99.90
73360;DHT22;63092;43.582;19.528;2023-12-20T11:52:12;3.70;99.90
73360;DHT22;63092;43.582;19.528;2023-12-20T11:54:38;3.70;99.90
73360;DHT22;63092;43.582;19.528;2023-12-20T11:57:04;3.70;99.90
73360;DHT22;63092;43.582;19.528;2023-12-20T11:59:30;3.70;99.90
73360;DHT22;63092;43.582;19.528;2023-12-20T12:01:56;3.70;99.90
73360;DHT22;63092;43.582;19.528;2023-12-20T12:04:28;3.80;99.90
73360;DHT22;63092;43.582;19.528;2023-12-20T12:06:54;3.80;99.90
73360;DHT22;63092;43.582;19.528;2023-12-20T12:09:20;3.90;99.90
73360;DHT22;63092;43.582;19.528;2023-12-20T12:11:45;4.10;99.90
73360;DHT22;63092;43.582;19.528;2023-12-20T12:14:11;4.00;99.90
73360;DHT22;63092;43.582;19.528;2023-12-20T12:16:36;4.00;99.90
73360;DHT22;63092;43.582;19.528;2023-12-20T12:19:02;4.00;99.90
73360;DHT22;63092;43.582;19.528;2023-12-20T12:21:29;4.10;99.90
73360;DHT22;63092;43.582;19.528;2023-12-20T12:24:05;4.10;99.90
73360;DHT22;63092;43.582;19.528;2023-12-20T12:26:31;4.20;99.90
73360;DHT22;63092;43.582;19.528;2023-12-20T12:28:56;4.30;99.90
73360;DHT22;63092;43.582;19.528;2023-12-20T12:31:22;4.20;99.90
73360;DHT22;63092;43.582;19.528;2023-12-20T12:33:48;4.20;99.90
73360;DHT22;63092;43.582;19.528;2023-12-20T12:36:14;4.30;99.90
73360;DHT22;63092;43.582;19.528;2023-12-20T12:38:41;4.30;99.90
73360;DHT22;63092;43.582;19.528;2023-12-20T12:41:06;4.30;99.90
73360;DHT22;63092;43.582;19.528;2023-12-20T12:43:32;4.30;99.90
73360;DHT22;63092;43.582;19.528;2023-12-20T12:45:58;4.20;99.90
73360;DHT22;63092;43.582;19.528;2023-12-20T12:48:23;4.10;99.90
73360;DHT22;63092;43.582;19.528;2023-12-20T12:50:49;4.20;99.90
73360;DHT22;63092;43.582;19.528;2023-12-20T12:53:17;4.20;99.90
73360;DHT22;63092;43.582;19.528;2023-12-20T12:55:42;4.30;99.90
73360;DHT22;63092;43.582;19.528;2023-12-20T12:58:08;4.40;99.90
73360;DHT22;63092;43.582;19.528;2023-12-20T13:00:34;4.40;99.90
73360;DHT22;63092;43.582;19.528;2023-12-20T13:02:59;4.40;99.90
73360;DHT22;63092;43.582;19.528;2023-12-20T13:05:25;4.40;99.90
73360;DHT22;63092;43.582;19.528;2023-12-20T13:07:50;4.40;99.90
73360;DHT22;63092;43.582;19.528;2023-12-20T13:10:16;4.40;99.90
73360;DHT22;63092;43.582;19.528;2023-12-20T13:12:43;4.50;99.90
73360;DHT22;63092;43.582;19.528;2023-12-20T13:15:08;4.50;99.90
73360;DHT22;63092;43.582;19.528;2023-12-20T13:17:34;4.50;99.90
73360;DHT22;63092;43.582;19.528;2023-12-20T13:20:00;4.50;99.90
73360;DHT22;63092;43.582;19.528;2023-12-20T13:22:25;4.50;99.90
73360;DHT22;63092;43.582;19.528;2023-12-20T13:24:51;4.60;99.90
73360;DHT22;63092;43.582;19.528;2023-12-20T13:27:16;4.60;99.90
73360;DHT22;63092;43.582;19.528;2023-12-20T13:29:42;4.60;99.90
73360;DHT22;63092;43.582;19.528;2023-12-20T13:32:07;4.60;99.90
73360;DHT22;63092;43.582;19.528;2023-12-20T13:34:33;4.40;99.90
73360;DHT22;63092;43.582;19.528;2023-12-20T13:36:59;4.50;99.90
73360;DHT22;63092;43.582;19.528;2023-12-20T13:39:24;4.40;99.90
73360;DHT22;63092;43.582;19.528;2023-12-20T13:41:50;4.30;99.90
73360;DHT22;63092;43.582;19.528;2023-12-20T13:44:15;4.30;99.90
73360;DHT22;63092;43.582;19.528;2023-12-20T13:46:41;4.30;99.90
73360;DHT22;63092;43.582;19.528;2023-12-20T13:49:07;4.30;99.90
73360;DHT22;63092;43.582;19.528;2023-12-20T13:51:32;4.20;99.90
73360;DHT22;63092;43.582;19.528;2023-12-20T13:53:58;4.10;99.90
73360;DHT22;63092;43.582;19.528;2023-12-20T13:56:24;4.10;99.90
73360;DHT22;63092;43.582;19.528;2023-12-20T13:58:50;4.00;99.90
73360;DHT22;63092;43.582;19.528;2023-12-20T14:01:16;4.00;99.90
73360;DHT22;63092;43.582;19.528;2023-12-20T14:03:41;4.10;99.90
73360;DHT22;63092;43.582;19.528;2023-12-20T14:06:07;4.20;99.90
73360;DHT22;63092;43.582;19.528;2023-12-20T14:08:33;4.20;99.90
73360;DHT22;63092;43.582;19.528;2023-12-20T14:10:58;4.30;99.90
73360;DHT22;63092;43.582;19.528;2023-12-20T14:13:24;4.30;99.90
73360;DHT22;63092;43.582;19.528;2023-12-20T14:15:49;4.20;99.90
73360;DHT22;63092;43.582;19.528;2023-12-20T14:18:15;4.20;99.90
73360;DHT22;63092;43.582;19.528;2023-12-20T14:20:41;4.20;99.90
73360;DHT22;63092;43.582;19.528;2023-12-20T14:23:08;4.20;99.90
73360;DHT22;63092;43.582;19.528;2023-12-20T14:25:34;4.20;99.90
73360;DHT22;63092;43.582;19.528;2023-12-20T14:28:02;4.10;99.90
73360;DHT22;63092;43.582;19.528;2023-12-20T14:30:28;4.20;99.90
73360;DHT22;63092;43.582;19.528;2023-12-20T14:32:54;4.10;99.90
73360;DHT22;63092;43.582;19.528;2023-12-20T14:35:19;4.10;99.90
73360;DHT22;63092;43.582;19.528;2023-12-20T14:37:45;4.00;99.90
73360;DHT22;63092;43.582;19.528;2023-12-20T14:40:11;4.00;99.90
73360;DHT22;63092;43.582;19.528;2023-12-20T14:42:40;3.90;99.90
73360;DHT22;63092;43.582;19.528;2023-12-20T14:45:06;3.90;99.90
73360;DHT22;63092;43.582;19.528;2023-12-20T14:47:32;3.90;99.90
73360;DHT22;63092;43.582;19.528;2023-12-20T14:49:58;3.90;99.90
73360;DHT22;63092;43.582;19.528;2023-12-20T14:52:23;3.90;99.90
73360;DHT22;63092;43.582;19.528;2023-12-20T14:54:49;4.00;99.90
73360;DHT22;63092;43.582;19.528;2023-12-20T14:57:14;4.00;99.90
73360;DHT22;63092;43.582;19.528;2023-12-20T14:59:40;4.00;99.90
73360;DHT22;63092;43.582;19.528;2023-12-20T15:02:06;4.00;99.90
73360;DHT22;63092;43.582;19.528;2023-12-20T15:04:31;3.90;99.90
73360;DHT22;63092;43.582;19.528;2023-12-20T15:06:57;3.90;99.90
73360;DHT22;63092;43.582;19.528;2023-12-20T15:09:23;3.90;99.90
73360;DHT22;63092;43.582;19.528;2023-12-20T15:11:49;3.90;99.90
73360;DHT22;63092;43.582;19.528;2023-12-20T15:14:15;4.00;99.90
73360;DHT22;63092;43.582;19.528;2023-12-20T15:16:44;4.10;99.90
73360;DHT22;63092;43.582;19.528;2023-12-20T15:19:11;4.10;99.90
73360;DHT22;63092;43.582;19.528;2023-12-20T15:21:37;4.10;99.90
73360;DHT22;63092;43.582;19.528;2023-12-20T15:24:06;4.00;99.90
73360;DHT22;63092;43.582;19.528;2023-12-20T15:26:38;4.00;99.90
73360;DHT22;63092;43.582;19.528;2023-12-20T15:29:04;4.00;99.90